sensor_id;sensor_type;location;lat;lon;timestamp;pressure;altitude;pressure_sealevel;temperature;humidity
16030;BME280;34770;49.272;11.070;2022-11-15T11:52:38;97157.19;;;17.43;47.57
16030;BME280;34770;49.272;11.070;2022-11-15T12:00:54;97143.78;;;17.96;48.24
16030;BME280;34770;49.272;11.070;2022-11-15T12:06:20;97129.09;;;17.74;48.83
16030;BME280;34770;49.272;11.070;2022-11-15T12:14:42;97120.44;;;17.19;48.47
16030;BME280;34770;49.272;11.070;2022-11-15T12:17:11;97115.06;;;16.90;49.93
16030;BME280;34770;49.272;11.070;2022-11-15T12:19:38;97123.69;;;16.61;50.79
16030;BME280;34770;49.272;11.070;2022-11-15T12:22:10;97128.75;;;16.17;52.11
16030;BME280;34770;49.272;11.070;2022-11-15T12:24:45;97126.03;;;16.06;52.40
16030;BME280;34770;49.272;11.070;2022-11-15T12:27:38;97117.13;;;16.19;51.96
16030;BME280;34770;49.272;11.070;2022-11-15T12:30:15;97122.19;;;17.02;50.77
16030;BME280;34770;49.272;11.070;2022-11-15T12:32:55;97108.69;;;16.79;51.00
16030;BME280;34770;49.272;11.070;2022-11-15T12:35:42;97118.09;;;17.10;50.43
16030;BME280;34770;49.272;11.070;2022-11-15T12:38:11;97110.84;;;17.13;50.23
16030;BME280;34770;49.272;11.070;2022-11-15T12:41:14;97118.06;;;17.14;49.51
16030;BME280;34770;49.272;11.070;2022-11-15T12:43:42;97114.94;;;17.46;49.58
16030;BME280;34770;49.272;11.070;2022-11-15T12:46:18;97104.44;;;17.12;49.35
16030;BME280;34770;49.272;11.070;2022-11-15T12:48:55;97108.56;;;17.00;50.56
16030;BME280;34770;49.272;11.070;2022-11-15T13:02:24;97103.84;;;14.83;57.27
16030;BME280;34770;49.272;11.070;2022-11-15T13:04:52;97106.22;;;14.60;59.02
16030;BME280;34770;49.272;11.070;2022-11-15T13:17:45;97107.19;;;13.72;62.29
16030;BME280;34770;49.272;11.070;2022-11-15T13:35:51;97076.56;;;14.23;63.25
16030;BME280;34770;49.272;11.070;2022-11-15T13:38:36;97054.63;;;14.75;62.44
16030;BME280;34770;49.272;11.070;2022-11-15T13:41:21;97049.06;;;15.97;59.15
16030;BME280;34770;49.272;11.070;2022-11-15T13:43:49;97047.56;;;16.94;56.67
16030;BME280;34770;49.272;11.070;2022-11-15T13:46:22;97039.81;;;18.09;53.38
16030;BME280;34770;49.272;11.070;2022-11-15T13:48:54;97041.78;;;18.90;51.04
16030;BME280;34770;49.272;11.070;2022-11-15T13:56:43;97036.44;;;19.84;46.85
16030;BME280;34770;49.272;11.070;2022-11-15T13:59:20;97023.91;;;18.77;47.68
16030;BME280;34770;49.272;11.070;2022-11-15T14:01:49;97033.44;;;19.07;48.01
16030;BME280;34770;49.272;11.070;2022-11-15T14:04:19;97025.06;;;18.79;47.75
16030;BME280;34770;49.272;11.070;2022-11-15T14:06:48;97035.47;;;19.50;47.40
16030;BME280;34770;49.272;11.070;2022-11-15T14:11:51;97039.97;;;17.98;51.07
16030;BME280;34770;49.272;11.070;2022-11-15T14:14:20;97037.56;;;16.89;54.81
16030;BME280;34770;49.272;11.070;2022-11-15T14:16:48;97033.88;;;16.99;57.93
16030;BME280;34770;49.272;11.070;2022-11-15T14:25:20;97028.81;;;17.91;56.26
16030;BME280;34770;49.272;11.070;2022-11-15T14:28:50;97021.72;;;18.37;55.03
16030;BME280;34770;49.272;11.070;2022-11-15T14:30:55;97014.81;;;18.89;54.32
16030;BME280;34770;49.272;11.070;2022-11-15T14:35:46;97019.50;;;16.41;59.04
16030;BME280;34770;49.272;11.070;2022-11-15T14:38:11;97026.84;;;15.50;64.82
16030;BME280;34770;49.272;11.070;2022-11-15T14:40:37;97022.22;;;14.45;70.13
16030;BME280;34770;49.272;11.070;2022-11-15T14:43:02;97020.13;;;13.84;71.20
16030;BME280;34770;49.272;11.070;2022-11-15T14:45:28;97027.41;;;13.12;75.81
16030;BME280;34770;49.272;11.070;2022-11-15T14:47:53;97026.03;;;12.80;78.65
16030;BME280;34770;49.272;11.070;2022-11-15T14:50:20;97021.47;;;12.54;80.87
16030;BME280;34770;49.272;11.070;2022-11-15T14:52:46;97014.31;;;12.08;81.17
16030;BME280;34770;49.272;11.070;2022-11-15T14:55:21;97016.50;;;11.91;83.10
16030;BME280;34770;49.272;11.070;2022-11-15T14:57:48;97013.56;;;11.77;85.44
16030;BME280;34770;49.272;11.070;2022-11-15T15:00:14;97005.16;;;11.36;87.75
16030;BME280;34770;49.272;11.070;2022-11-15T15:02:41;97004.69;;;11.30;89.34
16030;BME280;34770;49.272;11.070;2022-11-15T15:07:43;96994.66;;;10.91;92.01
16030;BME280;34770;49.272;11.070;2022-11-15T15:10:09;96995.63;;;10.76;93.11
16030;BME280;34770;49.272;11.070;2022-11-15T15:12:35;96979.47;;;10.58;94.23
16030;BME280;34770;49.272;11.070;2022-11-15T15:15:00;96979.59;;;10.38;95.31
16030;BME280;34770;49.272;11.070;2022-11-15T15:17:25;96977.41;;;10.28;95.59
16030;BME280;34770;49.272;11.070;2022-11-15T15:19:51;96975.09;;;10.07;97.45
16030;BME280;34770;49.272;11.070;2022-11-15T15:22:18;96974.16;;;9.99;98.65
16030;BME280;34770;49.272;11.070;2022-11-15T15:24:45;96970.88;;;9.70;100.00
16030;BME280;34770;49.272;11.070;2022-11-15T15:27:11;96980.00;;;9.48;100.00
16030;BME280;34770;49.272;11.070;2022-11-15T15:29:37;96980.59;;;9.37;100.00
16030;BME280;34770;49.272;11.070;2022-11-15T15:32:03;96977.84;;;9.18;100.00
16030;BME280;34770;49.272;11.070;2022-11-15T15:34:28;96973.00;;;9.15;100.00
16030;BME280;34770;49.272;11.070;2022-11-15T15:39:37;96974.91;;;8.91;100.00
16030;BME280;34770;49.272;11.070;2022-11-15T15:42:03;96967.63;;;8.83;100.00
16030;BME280;34770;49.272;11.070;2022-11-15T15:44:29;96972.47;;;8.70;100.00
16030;BME280;34770;49.272;11.070;2022-11-15T15:46:54;96971.16;;;8.64;100.00
16030;BME280;34770;49.272;11.070;2022-11-15T15:49:19;96966.63;;;8.55;100.00
16030;BME280;34770;49.272;11.070;2022-11-15T15:51:45;96981.19;;;8.52;100.00
16030;BME280;34770;49.272;11.070;2022-11-15T15:54:10;96970.66;;;8.42;100.00
16030;BME280;34770;49.272;11.070;2022-11-15T15:56:35;96975.75;;;8.40;100.00
16030;BME280;34770;49.272;11.070;2022-11-15T15:59:01;96975.31;;;8.38;100.00
16030;BME280;34770;49.272;11.070;2022-11-15T16:01:26;96972.72;;;8.29;100.00
16030;BME280;34770;49.272;11.070;2022-11-15T16:03:51;96973.16;;;8.31;100.00
16030;BME280;34770;49.272;11.070;2022-11-15T16:06:43;96973.28;;;8.19;100.00
16030;BME280;34770;49.272;11.070;2022-11-15T16:09:15;96978.47;;;8.20;100.00
16030;BME280;34770;49.272;11.070;2022-11-15T16:11:43;96975.06;;;8.27;100.00
16030;BME280;34770;49.272;11.070;2022-11-15T16:14:08;96968.25;;;8.24;100.00
16030;BME280;34770;49.272;11.070;2022-11-15T16:16:35;96970.50;;;8.19;100.00
16030;BME280;34770;49.272;11.070;2022-11-15T16:19:00;96978.81;;;8.19;100.00
16030;BME280;34770;49.272;11.070;2022-11-15T16:21:27;96970.88;;;8.17;100.00
16030;BME280;34770;49.272;11.070;2022-11-15T16:23:53;96975.88;;;8.11;100.00
16030;BME280;34770;49.272;11.070;2022-11-15T16:26:24;96963.19;;;8.10;100.00
16030;BME280;34770;49.272;11.070;2022-11-15T16:28:51;96968.28;;;8.08;100.00
16030;BME280;34770;49.272;11.070;2022-11-15T16:31:17;96967.38;;;8.04;100.00
16030;BME280;34770;49.272;11.070;2022-11-15T16:33:45;96960.69;;;8.05;100.00
16030;BME280;34770;49.272;11.070;2022-11-15T16:36:26;96963.28;;;7.98;100.00
16030;BME280;34770;49.272;11.070;2022-11-15T16:38:52;96955.41;;;8.00;100.00
16030;BME280;34770;49.272;11.070;2022-11-15T16:41:18;96963.00;;;8.03;100.00
16030;BME280;34770;49.272;11.070;2022-11-15T16:43:47;96964.06;;;7.98;100.00
16030;BME280;34770;49.272;11.070;2022-11-15T16:46:17;96953.63;;;7.92;100.00
16030;BME280;34770;49.272;11.070;2022-11-15T16:48:43;96947.66;;;7.90;100.00
16030;BME280;34770;49.272;11.070;2022-11-15T16:51:09;96944.59;;;7.95;100.00
16030;BME280;34770;49.272;11.070;2022-11-15T16:53:34;96942.28;;;7.81;100.00
16030;BME280;34770;49.272;11.070;2022-11-15T16:56:00;96945.94;;;7.85;100.00
16030;BME280;34770;49.272;11.070;2022-11-15T16:58:25;96939.53;;;7.81;100.00
16030;BME280;34770;49.272;11.070;2022-11-15T17:00:52;96938.28;;;7.78;100.00
16030;BME280;34770;49.272;11.070;2022-11-15T17:03:18;96936.28;;;7.79;100.00
16030;BME280;34770;49.272;11.070;2022-11-15T17:05:44;96930.38;;;7.80;100.00
16030;BME280;34770;49.272;11.070;2022-11-15T17:08:09;96929.69;;;7.83;100.00
16030;BME280;34770;49.272;11.070;2022-11-15T17:10:38;96919.13;;;7.73;100.00
16030;BME280;34770;49.272;11.070;2022-11-15T17:13:05;96914.41;;;7.74;100.00
16030;BME280;34770;49.272;11.070;2022-11-15T17:15:31;96912.53;;;7.78;100.00
16030;BME280;34770;49.272;11.070;2022-11-15T17:17:56;96913.34;;;7.78;100.00
16030;BME280;34770;49.272;11.070;2022-11-15T17:20:23;96904.94;;;7.75;100.00
16030;BME280;34770;49.272;11.070;2022-11-15T17:22:49;96902.63;;;7.61;100.00
16030;BME280;34770;49.272;11.070;2022-11-15T17:25:15;96897.97;;;7.65;100.00
16030;BME280;34770;49.272;11.070;2022-11-15T17:27:41;96896.38;;;7.64;100.00
16030;BME280;34770;49.272;11.070;2022-11-15T17:30:07;96890.38;;;7.62;100.00
16030;BME280;34770;49.272;11.070;2022-11-15T17:32:37;96877.50;;;7.54;100.00
16030;BME280;34770;49.272;11.070;2022-11-15T17:35:03;96885.91;;;7.73;100.00
16030;BME280;34770;49.272;11.070;2022-11-15T17:37:31;96880.03;;;7.75;100.00
16030;BME280;34770;49.272;11.070;2022-11-15T17:39:56;96885.81;;;7.70;100.00
16030;BME280;34770;49.272;11.070;2022-11-15T17:42:22;96889.69;;;7.65;100.00
16030;BME280;34770;49.272;11.070;2022-11-15T17:44:47;96890.19;;;7.71;100.00
16030;BME280;34770;49.272;11.070;2022-11-15T17:47:12;96883.88;;;7.70;100.00
16030;BME280;34770;49.272;11.070;2022-11-15T17:49:38;96882.53;;;7.64;100.00
16030;BME280;34770;49.272;11.070;2022-11-15T17:52:05;96887.69;;;7.65;100.00
16030;BME280;34770;49.272;11.070;2022-11-15T17:54:30;96876.34;;;7.55;100.00
16030;BME280;34770;49.272;11.070;2022-11-15T17:56:56;96887.53;;;7.58;100.00
16030;BME280;34770;49.272;11.070;2022-11-15T17:59:21;96881.09;;;7.54;100.00
16030;BME280;34770;49.272;11.070;2022-11-15T18:01:46;96877.34;;;7.46;100.00
16030;BME280;34770;49.272;11.070;2022-11-15T18:04:12;96865.56;;;7.49;100.00
16030;BME280;34770;49.272;11.070;2022-11-15T18:06:39;96869.03;;;7.46;100.00
16030;BME280;34770;49.272;11.070;2022-11-15T18:09:05;96870.72;;;7.51;100.00
16030;BME280;34770;49.272;11.070;2022-11-15T18:11:37;96855.66;;;7.32;100.00
16030;BME280;34770;49.272;11.070;2022-11-15T18:14:06;96860.44;;;7.35;100.00
16030;BME280;34770;49.272;11.070;2022-11-15T18:16:34;96864.22;;;7.43;100.00
16030;BME280;34770;49.272;11.070;2022-11-15T18:19:00;96864.66;;;7.45;100.00
16030;BME280;34770;49.272;11.070;2022-11-15T18:21:30;96845.81;;;7.51;100.00
16030;BME280;34770;49.272;11.070;2022-11-15T18:23:59;96848.94;;;7.49;100.00
16030;BME280;34770;49.272;11.070;2022-11-15T18:26:26;96851.53;;;7.42;100.00
16030;BME280;34770;49.272;11.070;2022-11-15T18:28:55;96851.81;;;7.37;100.00
16030;BME280;34770;49.272;11.070;2022-11-15T18:31:27;96851.81;;;7.37;100.00
16030;BME280;34770;49.272;11.070;2022-11-15T18:33:53;96844.56;;;7.32;100.00
16030;BME280;34770;49.272;11.070;2022-11-15T18:36:27;96840.09;;;7.28;100.00
16030;BME280;34770;49.272;11.070;2022-11-15T18:38:58;96837.59;;;7.39;100.00
16030;BME280;34770;49.272;11.070;2022-11-15T18:41:24;96836.44;;;7.40;100.00
16030;BME280;34770;49.272;11.070;2022-11-15T18:43:53;96835.19;;;7.37;100.00
16030;BME280;34770;49.272;11.070;2022-11-15T18:46:21;96825.72;;;7.38;100.00
16030;BME280;34770;49.272;11.070;2022-11-15T18:48:47;96830.09;;;7.39;100.00
16030;BME280;34770;49.272;11.070;2022-11-15T18:51:17;96826.16;;;7.40;100.00
16030;BME280;34770;49.272;11.070;2022-11-15T18:53:43;96818.13;;;7.35;100.00
16030;BME280;34770;49.272;11.070;2022-11-15T18:58:42;96826.97;;;7.57;100.00
16030;BME280;34770;49.272;11.070;2022-11-15T19:03:40;96806.34;;;7.38;100.00
16030;BME280;34770;49.272;11.070;2022-11-15T19:06:07;96830.63;;;7.45;100.00
16030;BME280;34770;49.272;11.070;2022-11-15T19:08:34;96818.75;;;7.44;100.00
16030;BME280;34770;49.272;11.070;2022-11-15T19:13:32;96816.63;;;7.38;100.00
16030;BME280;34770;49.272;11.070;2022-11-15T19:15:59;96816.31;;;7.59;100.00
16030;BME280;34770;49.272;11.070;2022-11-15T19:18:26;96809.28;;;7.61;100.00
16030;BME280;34770;49.272;11.070;2022-11-15T19:20:52;96806.84;;;7.60;100.00
16030;BME280;34770;49.272;11.070;2022-11-15T19:23:19;96789.72;;;7.54;100.00
16030;BME280;34770;49.272;11.070;2022-11-15T19:25:55;96800.59;;;7.63;100.00
16030;BME280;34770;49.272;11.070;2022-11-15T19:28:21;96798.47;;;7.56;100.00
16030;BME280;34770;49.272;11.070;2022-11-15T19:30:47;96808.47;;;7.61;100.00
16030;BME280;34770;49.272;11.070;2022-11-15T19:33:12;96808.91;;;7.63;100.00
16030;BME280;34770;49.272;11.070;2022-11-15T19:35:37;96800.31;;;7.68;100.00
16030;BME280;34770;49.272;11.070;2022-11-15T19:38:03;96803.63;;;7.74;100.00
16030;BME280;34770;49.272;11.070;2022-11-15T19:40:28;96808.00;;;7.75;100.00
16030;BME280;34770;49.272;11.070;2022-11-15T19:42:55;96805.19;;;7.91;100.00
16030;BME280;34770;49.272;11.070;2022-11-15T19:45:20;96809.19;;;7.93;100.00
16030;BME280;34770;49.272;11.070;2022-11-15T19:47:45;96792.41;;;7.86;100.00
16030;BME280;34770;49.272;11.070;2022-11-15T19:50:11;96797.88;;;7.82;100.00
16030;BME280;34770;49.272;11.070;2022-11-15T19:52:36;96796.56;;;7.76;100.00
16030;BME280;34770;49.272;11.070;2022-11-15T19:55:01;96794.94;;;7.75;100.00
16030;BME280;34770;49.272;11.070;2022-11-15T19:57:27;96791.31;;;7.71;100.00
16030;BME280;34770;49.272;11.070;2022-11-15T19:59:52;96795.84;;;7.63;100.00
16030;BME280;34770;49.272;11.070;2022-11-15T20:02:17;96795.06;;;7.63;100.00
16030;BME280;34770;49.272;11.070;2022-11-15T20:04:43;96785.94;;;7.62;100.00
16030;BME280;34770;49.272;11.070;2022-11-15T20:07:08;96791.06;;;7.60;100.00
16030;BME280;34770;49.272;11.070;2022-11-15T20:09:34;96787.28;;;7.53;100.00
16030;BME280;34770;49.272;11.070;2022-11-15T20:11:59;96785.50;;;7.60;100.00
16030;BME280;34770;49.272;11.070;2022-11-15T20:14:25;96782.28;;;7.58;100.00
16030;BME280;34770;49.272;11.070;2022-11-15T20:16:50;96780.97;;;7.52;100.00
16030;BME280;34770;49.272;11.070;2022-11-15T20:19:16;96781.75;;;7.53;100.00
16030;BME280;34770;49.272;11.070;2022-11-15T20:21:42;96785.19;;;7.46;100.00
16030;BME280;34770;49.272;11.070;2022-11-15T20:24:08;96775.97;;;7.42;100.00
16030;BME280;34770;49.272;11.070;2022-11-15T20:26:33;96774.91;;;7.46;100.00
16030;BME280;34770;49.272;11.070;2022-11-15T20:28:59;96779.66;;;7.46;100.00
16030;BME280;34770;49.272;11.070;2022-11-15T20:31:27;96779.75;;;7.33;100.00
16030;BME280;34770;49.272;11.070;2022-11-15T20:33:53;96783.13;;;7.27;100.00
16030;BME280;34770;49.272;11.070;2022-11-15T20:36:18;96777.16;;;7.25;100.00
16030;BME280;34770;49.272;11.070;2022-11-15T20:38:44;96767.16;;;7.20;100.00
16030;BME280;34770;49.272;11.070;2022-11-15T20:41:10;96786.59;;;7.24;100.00
16030;BME280;34770;49.272;11.070;2022-11-15T20:43:36;96778.31;;;7.24;100.00
16030;BME280;34770;49.272;11.070;2022-11-15T20:46:01;96770.72;;;7.21;100.00
16030;BME280;34770;49.272;11.070;2022-11-15T20:48:27;96766.06;;;7.25;100.00
16030;BME280;34770;49.272;11.070;2022-11-15T20:51:11;96771.19;;;7.23;100.00
16030;BME280;34770;49.272;11.070;2022-11-15T20:53:36;96771.63;;;7.25;100.00
16030;BME280;34770;49.272;11.070;2022-11-15T20:56:17;96764.91;;;7.26;100.00
16030;BME280;34770;49.272;11.070;2022-11-15T20:58:43;96762.25;;;7.13;100.00
16030;BME280;34770;49.272;11.070;2022-11-15T21:01:11;96761.81;;;7.11;100.00
16030;BME280;34770;49.272;11.070;2022-11-15T21:03:37;96754.56;;;7.07;100.00
16030;BME280;34770;49.272;11.070;2022-11-15T21:06:03;96760.19;;;7.10;100.00
16030;BME280;34770;49.272;11.070;2022-11-15T21:08:28;96751.28;;;7.01;100.00
16030;BME280;34770;49.272;11.070;2022-11-15T21:11:14;96760.84;;;7.03;100.00
16030;BME280;34770;49.272;11.070;2022-11-15T21:13:58;96748.06;;;6.99;100.00
16030;BME280;34770;49.272;11.070;2022-11-15T21:16:23;96744.47;;;6.82;100.00
16030;BME280;34770;49.272;11.070;2022-11-15T21:18:48;96714.25;;;6.74;100.00
16030;BME280;34770;49.272;11.070;2022-11-15T21:21:14;96738.69;;;6.71;100.00
16030;BME280;34770;49.272;11.070;2022-11-15T21:23:39;96733.69;;;6.77;100.00
16030;BME280;34770;49.272;11.070;2022-11-15T21:26:04;96727.00;;;6.78;100.00
16030;BME280;34770;49.272;11.070;2022-11-15T21:28:30;96713.09;;;6.59;100.00
16030;BME280;34770;49.272;11.070;2022-11-15T21:30:57;96739.22;;;6.61;100.00
16030;BME280;34770;49.272;11.070;2022-11-15T21:33:23;96723.31;;;6.58;100.00
16030;BME280;34770;49.272;11.070;2022-11-15T21:35:54;96722.44;;;6.54;100.00
16030;BME280;34770;49.272;11.070;2022-11-15T21:38:21;96713.16;;;6.46;100.00
16030;BME280;34770;49.272;11.070;2022-11-15T21:40:51;96706.47;;;6.47;100.00
16030;BME280;34770;49.272;11.070;2022-11-15T21:43:17;96709.84;;;6.41;100.00
16030;BME280;34770;49.272;11.070;2022-11-15T21:45:49;96700.56;;;6.33;100.00
16030;BME280;34770;49.272;11.070;2022-11-15T21:48:19;96699.66;;;6.29;100.00
16030;BME280;34770;49.272;11.070;2022-11-15T21:50:44;96701.94;;;6.11;100.00
16030;BME280;34770;49.272;11.070;2022-11-15T21:53:09;96700.25;;;5.94;100.00
16030;BME280;34770;49.272;11.070;2022-11-15T21:55:37;96691.41;;;5.88;100.00
16030;BME280;34770;49.272;11.070;2022-11-15T21:58:03;96685.66;;;5.93;100.00
16030;BME280;34770;49.272;11.070;2022-11-15T22:00:28;96680.56;;;5.95;100.00
16030;BME280;34770;49.272;11.070;2022-11-15T22:03:12;96675.19;;;5.86;100.00
16030;BME280;34770;49.272;11.070;2022-11-15T22:05:38;96644.22;;;5.65;100.00
16030;BME280;34770;49.272;11.070;2022-11-15T22:08:03;96670.13;;;5.88;100.00
16030;BME280;34770;49.272;11.070;2022-11-15T22:10:28;96674.56;;;5.77;100.00
16030;BME280;34770;49.272;11.070;2022-11-15T22:12:54;96665.47;;;5.77;100.00
16030;BME280;34770;49.272;11.070;2022-11-15T22:15:19;96665.25;;;5.69;100.00
16030;BME280;34770;49.272;11.070;2022-11-15T22:17:44;96666.56;;;5.59;100.00
16030;BME280;34770;49.272;11.070;2022-11-15T22:20:22;96666.81;;;5.54;100.00
16030;BME280;34770;49.272;11.070;2022-11-15T22:22:47;96649.31;;;5.50;100.00
16030;BME280;34770;49.272;11.070;2022-11-15T22:25:13;96659.47;;;5.46;100.00
16030;BME280;34770;49.272;11.070;2022-11-15T22:27:38;96657.91;;;5.33;100.00
16030;BME280;34770;49.272;11.070;2022-11-15T22:30:04;96650.88;;;5.35;100.00
16030;BME280;34770;49.272;11.070;2022-11-15T22:32:29;96652.03;;;5.34;100.00
16030;BME280;34770;49.272;11.070;2022-11-15T22:34:55;96645.59;;;5.30;100.00
16030;BME280;34770;49.272;11.070;2022-11-15T22:37:20;96643.63;;;5.31;100.00
16030;BME280;34770;49.272;11.070;2022-11-15T22:39:46;96650.41;;;5.33;100.00
16030;BME280;34770;49.272;11.070;2022-11-15T22:42:11;96635.16;;;5.23;100.00
16030;BME280;34770;49.272;11.070;2022-11-15T22:44:37;96621.88;;;5.01;100.00
16030;BME280;34770;49.272;11.070;2022-11-15T22:47:03;96630.13;;;5.13;100.00
16030;BME280;34770;49.272;11.070;2022-11-15T22:49:28;96623.91;;;5.16;100.00
16030;BME280;34770;49.272;11.070;2022-11-15T22:51:53;96627.00;;;5.15;100.00
16030;BME280;34770;49.272;11.070;2022-11-15T22:54:19;96612.00;;;5.00;100.00
16030;BME280;34770;49.272;11.070;2022-11-15T22:56:44;96611.50;;;5.10;100.00
16030;BME280;34770;49.272;11.070;2022-11-15T22:59:10;96588.91;;;4.92;100.00
16030;BME280;34770;49.272;11.070;2022-11-15T23:01:35;96614.75;;;4.87;100.00
16030;BME280;34770;49.272;11.070;2022-11-15T23:04:01;96606.38;;;4.84;100.00
16030;BME280;34770;49.272;11.070;2022-11-15T23:06:26;96608.44;;;4.87;100.00
16030;BME280;34770;49.272;11.070;2022-11-15T23:08:52;96604.06;;;4.86;100.00
16030;BME280;34770;49.272;11.070;2022-11-15T23:11:17;96595.44;;;4.87;100.00
16030;BME280;34770;49.272;11.070;2022-11-15T23:14:01;96600.19;;;4.87;100.00
16030;BME280;34770;49.272;11.070;2022-11-15T23:16:27;96569.53;;;4.63;100.00
16030;BME280;34770;49.272;11.070;2022-11-15T23:19:04;96593.16;;;4.89;100.00
16030;BME280;34770;49.272;11.070;2022-11-15T23:21:35;96592.38;;;4.76;100.00
16030;BME280;34770;49.272;11.070;2022-11-15T23:24:20;96595.22;;;4.80;100.00
16030;BME280;34770;49.272;11.070;2022-11-15T23:26:49;96582.03;;;4.86;100.00
16030;BME280;34770;49.272;11.070;2022-11-15T23:29:16;96584.09;;;4.89;100.00
16030;BME280;34770;49.272;11.070;2022-11-15T23:31:43;96576.28;;;4.78;100.00
16030;BME280;34770;49.272;11.070;2022-11-15T23:34:31;96584.09;;;4.76;100.00
16030;BME280;34770;49.272;11.070;2022-11-15T23:36:57;96596.75;;;4.65;100.00
16030;BME280;34770;49.272;11.070;2022-11-15T23:39:23;96592.59;;;4.71;100.00
16030;BME280;34770;49.272;11.070;2022-11-15T23:41:49;96590.78;;;4.75;100.00
16030;BME280;34770;49.272;11.070;2022-11-15T23:44:14;96582.16;;;4.77;100.00
16030;BME280;34770;49.272;11.070;2022-11-15T23:46:39;96577.44;;;4.77;100.00
16030;BME280;34770;49.272;11.070;2022-11-15T23:49:05;96553.91;;;4.68;100.00
16030;BME280;34770;49.272;11.070;2022-11-15T23:51:31;96570.41;;;4.80;100.00
16030;BME280;34770;49.272;11.070;2022-11-15T23:53:56;96566.19;;;4.83;100.00
16030;BME280;34770;49.272;11.070;2022-11-15T23:56:23;96565.84;;;4.84;100.00
16030;BME280;34770;49.272;11.070;2022-11-15T23:58:49;96561.22;;;4.88;100.00
